Time;durP1;ratioP1;P1;durP2;ratioP2;P2;SDS_P1;SDS_P2;PMS_P1;PMS_P2;Temp;Humidity;BMP_temperature;BMP_pressure;BME280_temperature;BME280_humidity;BME280_pressure;Samples;Min_cycle;Max_cycle;Signal;HPM_P1;HPM_P2
2024/03/17 00:00:44;;;;;;;8.70;5.30;;;;;;;;;;751146;186;826447;-60
2024/03/17 00:03:09;;;;;;;5.93;4.20;;;;;;;;;;752420;183;817400;-59
2024/03/17 00:05:35;;;;;;;5.00;3.63;;;;;;;;;;754315;186;921876;-59
2024/03/17 00:08:01;;;;;;;8.98;4.37;;;;;;;;;;750285;186;919488;-61
2024/03/17 00:10:27;;;;;;;5.57;4.07;;;;;;;;;;750895;183;914886;-60
2024/03/17 00:12:53;;;;;;;6.20;3.30;;;;;;;;;;750098;185;928202;-60
2024/03/17 00:15:19;;;;;;;5.77;3.53;;;;;;;;;;750925;186;919515;-60
2024/03/17 00:17:44;;;;;;;4.10;3.33;;;;;;;;;;752144;186;916887;-60
2024/03/17 00:20:18;;;;;;;3.90;3.17;;;;;;;;;;751456;186;927809;-59
2024/03/17 00:22:39;;;;;;;5.80;3.53;;;;;;;;;;755199;184;769571;-62
2024/03/17 00:25:03;;;;;;;7.70;4.20;;;;;;;;;;752546;186;919436;-61
2024/03/17 00:27:29;;;;;;;6.90;4.10;;;;;;;;;;751443;184;919740;-61
2024/03/17 00:29:55;;;;;;;4.97;3.50;;;;;;;;;;755764;186;873202;-62
2024/03/17 00:32:22;;;;;;;5.07;3.47;;;;;;;;;;747783;183;920187;-61
2024/03/17 00:34:47;;;;;;;8.73;3.90;;;;;;;;;;752787;185;919324;-61
2024/03/17 00:37:13;;;;;;;4.37;3.30;;;;;;;;;;752361;186;919040;-61
2024/03/17 00:39:39;;;;;;;5.30;3.37;;;;;;;;;;752397;186;920535;-60
2024/03/17 00:42:06;;;;;;;6.10;3.30;;;;;;;;;;751372;186;816884;-60
2024/03/17 00:44:31;;;;;;;6.60;4.33;;;;;;;;;;751687;183;817448;-61
2024/03/17 00:46:57;;;;;;;5.37;3.50;;;;;;;;;;757473;186;916177;-61
2024/03/17 00:49:23;;;;;;;5.05;2.80;;;;;;;;;;750600;186;918870;-60
2024/03/17 00:51:50;;;;;;;6.77;3.77;;;;;;;;;;751453;186;918763;-60
2024/03/17 00:54:14;;;;;;;6.37;4.30;;;;;;;;;;755181;186;921801;-61
2024/03/17 00:56:40;;;;;;;4.25;2.92;;;;;;;;;;750167;186;917660;-60
2024/03/17 00:59:06;;;;;;;7.20;3.77;;;;;;;;;;748259;186;918901;-60
2024/03/17 01:01:32;;;;;;;5.50;3.53;;;;;;;;;;749084;186;919485;-60
2024/03/17 01:03:58;;;;;;;4.07;2.77;;;;;;;;;;752681;186;820153;-61
2024/03/17 01:06:24;;;;;;;5.23;2.97;;;;;;;;;;751308;183;918877;-60
2024/03/17 01:08:51;;;;;;;6.83;3.57;;;;;;;;;;746835;187;816322;-60
2024/03/17 01:11:17;;;;;;;5.77;3.70;;;;;;;;;;755108;186;814919;-61
2024/03/17 01:13:41;;;;;;;4.63;2.77;;;;;;;;;;750634;186;918684;-59
2024/03/17 01:16:07;;;;;;;6.63;3.00;;;;;;;;;;749821;184;918478;-61
2024/03/17 01:18:34;;;;;;;7.90;4.00;;;;;;;;;;755268;186;921126;-61
2024/03/17 01:20:59;;;;;;;8.43;5.07;;;;;;;;;;751644;186;917507;-61
2024/03/17 01:23:24;;;;;;;7.40;3.90;;;;;;;;;;744422;186;919454;-61
2024/03/17 01:25:50;;;;;;;5.90;3.67;;;;;;;;;;755214;183;918664;-60
2024/03/17 01:28:16;;;;;;;6.07;3.53;;;;;;;;;;747506;186;820573;-61
2024/03/17 01:30:42;;;;;;;5.55;3.15;;;;;;;;;;748068;184;919608;-61
2024/03/17 01:33:09;;;;;;;6.67;3.90;;;;;;;;;;745288;186;919272;-61
2024/03/17 01:35:34;;;;;;;9.83;2.93;;;;;;;;;;755509;186;919073;-60
2024/03/17 01:37:59;;;;;;;6.60;3.03;;;;;;;;;;749307;186;918982;-59
2024/03/17 01:40:25;;;;;;;5.37;2.90;;;;;;;;;;754060;186;917560;-59
2024/03/17 01:42:51;;;;;;;9.30;3.43;;;;;;;;;;753686;186;921770;-60
2024/03/17 01:45:20;;;;;;;6.93;2.97;;;;;;;;;;747938;185;920533;-61
2024/03/17 01:47:46;;;;;;;7.00;4.40;;;;;;;;;;752269;186;921253;-59
2024/03/17 01:50:13;;;;;;;4.70;2.58;;;;;;;;;;757630;186;920425;-60
2024/03/17 01:52:37;;;;;;;5.77;3.80;;;;;;;;;;737812;186;919895;-60
2024/03/17 01:55:03;;;;;;;3.70;2.37;;;;;;;;;;741282;186;921890;-60
2024/03/17 01:57:29;;;;;;;5.63;2.70;;;;;;;;;;743119;186;878981;-59
2024/03/17 01:59:55;;;;;;;6.10;2.97;;;;;;;;;;758180;186;817072;-60
2024/03/17 02:02:21;;;;;;;7.30;2.73;;;;;;;;;;750648;186;919402;-61
2024/03/17 02:04:47;;;;;;;4.90;2.60;;;;;;;;;;749287;186;919040;-59
2024/03/17 02:07:13;;;;;;;9.03;2.60;;;;;;;;;;755508;186;910450;-60
2024/03/17 02:09:38;;;;;;;5.43;2.80;;;;;;;;;;753084;186;869496;-60
2024/03/17 02:12:04;;;;;;;7.23;3.60;;;;;;;;;;752457;186;929528;-60
2024/03/17 02:14:30;;;;;;;5.00;3.07;;;;;;;;;;754898;186;918444;-60
2024/03/17 02:16:56;;;;;;;5.47;2.78;;;;;;;;;;753190;186;918409;-59
2024/03/17 02:19:22;;;;;;;6.73;3.60;;;;;;;;;;749204;183;919122;-61
2024/03/17 02:21:48;;;;;;;13.57;3.17;;;;;;;;;;749629;186;917216;-60
2024/03/17 02:24:13;;;;;;;14.57;4.00;;;;;;;;;;753122;186;917908;-60
2024/03/17 02:26:40;;;;;;;5.07;3.40;;;;;;;;;;748845;186;918960;-59
2024/03/17 02:29:05;;;;;;;8.00;3.23;;;;;;;;;;745549;186;921848;-61
2024/03/17 02:31:31;;;;;;;6.33;3.97;;;;;;;;;;756221;186;816132;-61
2024/03/17 02:33:57;;;;;;;10.27;4.80;;;;;;;;;;753152;186;919801;-61
2024/03/17 02:36:23;;;;;;;9.20;4.10;;;;;;;;;;746965;186;923327;-61
2024/03/17 02:41:20;;;;;;;7.03;3.17;;;;;;;;;;754736;184;920006;-61
2024/03/17 02:43:46;;;;;;;7.70;3.80;;;;;;;;;;749302;186;912299;-60
2024/03/17 02:46:12;;;;;;;9.60;5.07;;;;;;;;;;750754;185;929919;-59
2024/03/17 02:48:44;;;;;;;6.73;3.90;;;;;;;;;;755527;186;810226;-61
2024/03/17 02:51:04;;;;;;;6.10;3.90;;;;;;;;;;747277;186;836979;-60
2024/03/17 02:53:30;;;;;;;8.00;4.20;;;;;;;;;;747158;185;895624;-60
2024/03/17 02:55:55;;;;;;;13.85;4.30;;;;;;;;;;754280;186;908095;-61
2024/03/17 02:58:21;;;;;;;8.40;3.73;;;;;;;;;;752412;185;909154;-59
2024/03/17 03:00:47;;;;;;;6.23;3.40;;;;;;;;;;750786;185;919509;-61
2024/03/17 03:03:13;;;;;;;8.03;4.23;;;;;;;;;;754987;186;817289;-61
2024/03/17 03:05:40;;;;;;;9.80;3.37;;;;;;;;;;751101;185;902296;-60
2024/03/17 03:08:05;;;;;;;7.33;2.83;;;;;;;;;;748202;186;817972;-60
2024/03/17 03:10:31;;;;;;;5.47;3.70;;;;;;;;;;749788;186;919476;-60
2024/03/17 03:12:57;;;;;;;7.13;3.87;;;;;;;;;;756910;186;868525;-60
2024/03/17 03:15:23;;;;;;;8.47;4.10;;;;;;;;;;747552;186;916734;-61
2024/03/17 03:17:48;;;;;;;4.97;3.00;;;;;;;;;;750664;184;937701;-61
2024/03/17 03:20:14;;;;;;;5.33;3.20;;;;;;;;;;756525;186;919074;-61
2024/03/17 03:22:40;;;;;;;9.40;3.80;;;;;;;;;;749285;185;919033;-61
2024/03/17 03:25:07;;;;;;;6.83;3.40;;;;;;;;;;751619;186;919866;-60
2024/03/17 03:27:33;;;;;;;5.70;3.20;;;;;;;;;;755781;186;919185;-61
2024/03/17 03:29:59;;;;;;;8.07;3.80;;;;;;;;;;752532;186;921110;-61
2024/03/17 03:32:24;;;;;;;7.57;2.87;;;;;;;;;;750746;186;919581;-61
2024/03/17 03:34:49;;;;;;;4.80;2.80;;;;;;;;;;748570;186;926642;-61
2024/03/17 03:37:15;;;;;;;4.47;2.65;;;;;;;;;;753935;186;919352;-61
2024/03/17 03:39:41;;;;;;;5.63;2.43;;;;;;;;;;750027;186;920406;-60
2024/03/17 03:42:07;;;;;;;5.17;3.00;;;;;;;;;;750558;186;862714;-59
2024/03/17 03:44:33;;;;;;;5.37;2.97;;;;;;;;;;755931;186;920923;-59
2024/03/17 03:47:00;;;;;;;7.03;3.43;;;;;;;;;;749320;186;820214;-60
2024/03/17 03:49:26;;;;;;;5.33;2.77;;;;;;;;;;750555;186;818330;-61
2024/03/17 03:51:51;;;;;;;4.50;2.47;;;;;;;;;;753715;186;917879;-60
2024/03/17 03:54:17;;;;;;;5.60;3.10;;;;;;;;;;750462;186;921259;-59
2024/03/17 03:56:44;;;;;;;5.40;2.90;;;;;;;;;;748868;186;918024;-60
2024/03/17 03:59:09;;;;;;;6.07;2.57;;;;;;;;;;749800;186;1021543;-60
2024/03/17 04:01:35;;;;;;;5.33;2.93;;;;;;;;;;752759;186;918146;-59
2024/03/17 04:04:00;;;;;;;6.03;3.30;;;;;;;;;;747628;186;816831;-60
2024/03/17 04:06:26;;;;;;;4.93;2.23;;;;;;;;;;749880;186;919067;-61
2024/03/17 04:08:52;;;;;;;5.27;3.30;;;;;;;;;;759198;184;824280;-61
2024/03/17 04:11:18;;;;;;;6.80;3.10;;;;;;;;;;751022;184;918969;-60
2024/03/17 04:13:44;;;;;;;6.13;3.00;;;;;;;;;;749094;186;918786;-60
2024/03/17 04:16:10;;;;;;;8.70;3.23;;;;;;;;;;751083;186;816434;-61
2024/03/17 04:18:35;;;;;;;5.85;3.45;;;;;;;;;;752964;184;919377;-60
2024/03/17 04:21:03;;;;;;;5.10;3.07;;;;;;;;;;751272;186;920451;-60
2024/03/17 04:23:29;;;;;;;5.53;3.73;;;;;;;;;;751563;185;1015654;-61
2024/03/17 04:25:54;;;;;;;6.90;3.80;;;;;;;;;;749671;186;920652;-60
2024/03/17 04:28:20;;;;;;;9.13;3.90;;;;;;;;;;748444;186;920329;-60
2024/03/17 04:30:46;;;;;;;4.90;3.10;;;;;;;;;;748548;186;919616;-61
2024/03/17 04:33:11;;;;;;;5.50;3.20;;;;;;;;;;758264;186;713934;-61
2024/03/17 04:35:38;;;;;;;5.43;3.00;;;;;;;;;;749685;186;919502;-60
2024/03/17 04:38:05;;;;;;;6.53;3.27;;;;;;;;;;750387;186;927392;-60
2024/03/17 04:40:30;;;;;;;7.60;4.00;;;;;;;;;;754985;186;918657;-60
2024/03/17 04:42:56;;;;;;;5.87;4.03;;;;;;;;;;752373;185;920805;-60
2024/03/17 04:45:22;;;;;;;5.03;3.50;;;;;;;;;;750599;186;817032;-59
2024/03/17 04:47:47;;;;;;;6.97;3.63;;;;;;;;;;749743;184;859821;-60
2024/03/17 04:50:13;;;;;;;7.63;3.77;;;;;;;;;;751412;183;818368;-59
2024/03/17 04:52:39;;;;;;;6.20;3.43;;;;;;;;;;749590;186;920257;-60
2024/03/17 04:55:05;;;;;;;5.30;3.20;;;;;;;;;;750883;186;918890;-59
2024/03/17 04:57:31;;;;;;;5.07;3.20;;;;;;;;;;755870;186;736249;-61
2024/03/17 04:59:57;;;;;;;5.73;3.60;;;;;;;;;;750753;183;926832;-61
2024/03/17 05:02:23;;;;;;;7.47;4.87;;;;;;;;;;751932;186;828168;-61
2024/03/17 05:04:48;;;;;;;6.73;4.30;;;;;;;;;;749344;187;918365;-60
2024/03/17 05:07:14;;;;;;;8.33;4.40;;;;;;;;;;748349;186;919497;-61
2024/03/17 05:09:40;;;;;;;9.57;4.40;;;;;;;;;;751799;183;916754;-61
2024/03/17 05:12:06;;;;;;;6.43;4.20;;;;;;;;;;753918;186;935692;-60
2024/03/17 05:14:32;;;;;;;6.93;3.73;;;;;;;;;;752434;186;772832;-61
2024/03/17 05:16:58;;;;;;;7.37;4.17;;;;;;;;;;750962;186;913165;-59
2024/03/17 05:19:24;;;;;;;7.63;4.27;;;;;;;;;;750101;183;816768;-61
2024/03/17 05:21:50;;;;;;;5.87;3.40;;;;;;;;;;756719;185;918581;-61
2024/03/17 05:24:16;;;;;;;5.43;3.50;;;;;;;;;;751233;186;919111;-60
2024/03/17 05:26:42;;;;;;;4.33;3.03;;;;;;;;;;750513;186;915949;-60
2024/03/17 05:29:09;;;;;;;5.70;3.37;;;;;;;;;;751987;184;909156;-61
2024/03/17 05:31:34;;;;;;;5.53;3.50;;;;;;;;;;750476;186;916813;-60
2024/03/17 05:34:00;;;;;;;7.80;3.60;;;;;;;;;;749401;186;929153;-59
2024/03/17 05:36:26;;;;;;;5.40;3.23;;;;;;;;;;755806;186;916492;-60
2024/03/17 05:38:52;;;;;;;9.00;3.20;;;;;;;;;;752836;186;921834;-61
2024/03/17 05:41:17;;;;;;;7.00;3.50;;;;;;;;;;751291;186;919476;-59
2024/03/17 05:43:43;;;;;;;9.30;4.00;;;;;;;;;;750464;186;918916;-59
2024/03/17 05:46:09;;;;;;;6.95;3.65;;;;;;;;;;754347;186;919583;-60
2024/03/17 05:48:37;;;;;;;6.97;3.87;;;;;;;;;;748194;186;922852;-61
2024/03/17 05:51:02;;;;;;;5.40;3.23;;;;;;;;;;752138;183;818744;-60
2024/03/17 05:53:27;;;;;;;5.30;3.37;;;;;;;;;;756572;183;915005;-61
2024/03/17 05:55:52;;;;;;;13.97;3.60;;;;;;;;;;749839;186;919846;-59
2024/03/17 05:58:18;;;;;;;6.97;4.33;;;;;;;;;;751086;186;862658;-60
2024/03/17 06:00:44;;;;;;;7.67;4.10;;;;;;;;;;755725;186;918874;-60
2024/03/17 06:03:10;;;;;;;9.33;3.37;;;;;;;;;;750938;186;919233;-61
2024/03/17 06:05:36;;;;;;;7.53;4.80;;;;;;;;;;752019;186;814998;-59
2024/03/17 06:08:02;;;;;;;6.73;3.13;;;;;;;;;;748086;186;917852;-60
2024/03/17 06:10:27;;;;;;;5.93;3.57;;;;;;;;;;749893;185;818574;-60
2024/03/17 06:12:53;;;;;;;5.78;3.12;;;;;;;;;;748228;186;917374;-61
2024/03/17 06:15:21;;;;;;;6.90;3.27;;;;;;;;;;747076;186;945050;-60
2024/03/17 06:17:45;;;;;;;5.70;3.17;;;;;;;;;;756331;186;923804;-60
2024/03/17 06:20:13;;;;;;;5.73;3.70;;;;;;;;;;750964;186;938434;-60
2024/03/17 06:22:37;;;;;;;7.47;3.30;;;;;;;;;;751429;186;917179;-61
2024/03/17 06:25:04;;;;;;;7.83;3.13;;;;;;;;;;754695;186;813429;-61
2024/03/17 06:27:29;;;;;;;5.37;2.60;;;;;;;;;;750809;186;915548;-59
2024/03/17 06:29:55;;;;;;;6.37;2.83;;;;;;;;;;740914;186;917715;-60
2024/03/17 06:32:20;;;;;;;4.95;2.50;;;;;;;;;;747799;185;920144;-61
2024/03/17 06:34:46;;;;;;;6.07;3.53;;;;;;;;;;756518;186;818041;-61
2024/03/17 06:37:12;;;;;;;9.30;3.30;;;;;;;;;;753501;185;919777;-61
2024/03/17 06:39:39;;;;;;;5.10;2.77;;;;;;;;;;750153;186;919714;-62
2024/03/17 06:42:04;;;;;;;4.33;2.70;;;;;;;;;;751389;186;922627;-60
2024/03/17 06:44:32;;;;;;;10.27;3.20;;;;;;;;;;750640;186;817684;-59
2024/03/17 06:46:55;;;;;;;5.50;3.28;;;;;;;;;;753869;183;917888;-60
2024/03/17 06:49:21;;;;;;;6.70;3.70;;;;;;;;;;752854;184;812974;-61
2024/03/17 06:51:48;;;;;;;8.50;3.60;;;;;;;;;;746262;186;897769;-60
2024/03/17 06:54:13;;;;;;;7.60;3.80;;;;;;;;;;749859;186;876741;-60
2024/03/17 06:56:40;;;;;;;5.67;4.20;;;;;;;;;;737884;186;860988;-60
2024/03/17 06:59:05;;;;;;;7.10;4.13;;;;;;;;;;749134;183;922861;-60
2024/03/17 07:01:31;;;;;;;5.83;2.93;;;;;;;;;;750692;186;919756;-60
2024/03/17 07:03:56;;;;;;;6.13;3.93;;;;;;;;;;750317;183;913485;-60
2024/03/17 07:06:23;;;;;;;9.60;4.30;;;;;;;;;;754816;186;919482;-59
2024/03/17 07:08:48;;;;;;;5.93;3.43;;;;;;;;;;750897;186;920159;-60
2024/03/17 07:11:15;;;;;;;7.73;4.70;;;;;;;;;;749476;186;920047;-60
2024/03/17 07:13:41;;;;;;;4.40;3.07;;;;;;;;;;756315;186;907471;-60
2024/03/17 07:16:06;;;;;;;8.70;3.40;;;;;;;;;;751712;183;919520;-60
2024/03/17 07:18:32;;;;;;;7.73;3.87;;;;;;;;;;751351;186;921069;-60
2024/03/17 07:20:58;;;;;;;9.20;3.37;;;;;;;;;;756631;186;848965;-60
2024/03/17 07:23:23;;;;;;;9.73;3.70;;;;;;;;;;735473;186;1022206;-60
2024/03/17 07:25:53;;;;;;;6.73;3.33;;;;;;;;;;751877;186;916951;-60
2024/03/17 07:28:18;;;;;;;10.20;3.07;;;;;;;;;;751667;186;916630;-60
2024/03/17 07:30:47;;;;;;;6.50;3.13;;;;;;;;;;753069;186;918424;-60
2024/03/17 07:33:13;;;;;;;6.30;3.20;;;;;;;;;;749835;186;920511;-60
2024/03/17 07:35:38;;;;;;;27.93;5.00;;;;;;;;;;750315;186;910185;-60
2024/03/17 07:38:04;;;;;;;5.60;3.23;;;;;;;;;;751757;185;918475;-60
2024/03/17 07:40:30;;;;;;;9.50;5.45;;;;;;;;;;746539;184;823118;-60
2024/03/17 07:42:56;;;;;;;7.13;4.03;;;;;;;;;;750616;184;920832;-60
2024/03/17 07:45:22;;;;;;;9.13;4.30;;;;;;;;;;754143;185;827876;-60
2024/03/17 07:47:48;;;;;;;7.20;3.90;;;;;;;;;;752733;185;919717;-61
2024/03/17 07:50:13;;;;;;;5.70;3.30;;;;;;;;;;751522;186;919374;-60
2024/03/17 07:52:39;;;;;;;8.17;3.60;;;;;;;;;;753642;186;918507;-60
2024/03/17 07:55:05;;;;;;;5.00;3.13;;;;;;;;;;758920;186;918143;-60
2024/03/17 07:57:31;;;;;;;6.40;2.90;;;;;;;;;;752569;186;804500;-61
2024/03/17 07:59:57;;;;;;;6.30;3.20;;;;;;;;;;750058;186;920074;-60
2024/03/17 08:02:23;;;;;;;6.53;3.17;;;;;;;;;;755602;186;883426;-61
2024/03/17 08:04:49;;;;;;;4.83;2.67;;;;;;;;;;750966;186;919499;-60
2024/03/17 08:07:14;;;;;;;6.30;3.20;;;;;;;;;;755672;183;622566;-62
2024/03/17 08:09:41;;;;;;;6.43;3.15;;;;;;;;;;758321;183;627823;-62
2024/03/17 08:12:07;;;;;;;6.40;2.60;;;;;;;;;;743583;187;915907;-61
2024/03/17 08:14:33;;;;;;;8.30;2.87;;;;;;;;;;739573;188;625158;-62
2024/03/17 08:16:58;;;;;;;6.13;2.87;;;;;;;;;;741999;186;918465;-62
2024/03/17 08:19:24;;;;;;;11.97;3.70;;;;;;;;;;752965;186;919330;-62
2024/03/17 08:21:50;;;;;;;13.37;5.17;;;;;;;;;;750063;186;920025;-60
2024/03/17 08:24:16;;;;;;;8.07;3.80;;;;;;;;;;748184;186;918994;-60
2024/03/17 08:26:42;;;;;;;7.80;2.80;;;;;;;;;;755933;183;820142;-61
2024/03/17 08:29:08;;;;;;;7.90;3.22;;;;;;;;;;751951;186;921369;-61
2024/03/17 08:31:33;;;;;;;7.90;3.00;;;;;;;;;;748764;186;922187;-60
2024/03/17 08:33:59;;;;;;;5.50;3.27;;;;;;;;;;754917;186;825886;-60
2024/03/17 08:36:25;;;;;;;6.47;3.30;;;;;;;;;;751506;183;818583;-60
2024/03/17 08:38:51;;;;;;;6.40;2.73;;;;;;;;;;749980;186;816852;-64
2024/03/17 08:41:17;;;;;;;5.73;2.80;;;;;;;;;;747115;186;821479;-63
2024/03/17 08:43:43;;;;;;;5.10;2.80;;;;;;;;;;753500;186;938638;-61
2024/03/17 08:46:08;;;;;;;5.07;2.57;;;;;;;;;;750628;186;920131;-61
2024/03/17 08:48:34;;;;;;;5.43;2.93;;;;;;;;;;748892;185;919891;-61
2024/03/17 08:51:01;;;;;;;7.30;2.90;;;;;;;;;;756117;186;892643;-61
2024/03/17 08:53:26;;;;;;;5.77;2.40;;;;;;;;;;751760;186;918882;-62
2024/03/17 08:55:52;;;;;;;4.70;2.57;;;;;;;;;;754599;185;918076;-61
2024/03/17 08:58:18;;;;;;;5.67;2.70;;;;;;;;;;759030;185;876297;-62
2024/03/17 09:00:44;;;;;;;5.70;2.80;;;;;;;;;;749089;186;904060;-62
2024/03/17 09:03:10;;;;;;;5.60;2.90;;;;;;;;;;752212;183;934694;-60
2024/03/17 09:05:35;;;;;;;8.33;2.67;;;;;;;;;;752717;186;919509;-62
2024/03/17 09:08:01;;;;;;;5.67;3.00;;;;;;;;;;749177;186;901039;-61
2024/03/17 09:10:27;;;;;;;4.60;2.33;;;;;;;;;;751779;183;922200;-61
2024/03/17 09:12:53;;;;;;;6.00;2.70;;;;;;;;;;746689;186;919372;-61
2024/03/17 09:15:18;;;;;;;6.67;3.23;;;;;;;;;;751359;186;984102;-61
2024/03/17 09:17:44;;;;;;;5.50;3.33;;;;;;;;;;748265;184;919476;-61
2024/03/17 09:20:11;;;;;;;9.50;3.30;;;;;;;;;;749500;186;925491;-60
2024/03/17 09:22:36;;;;;;;6.20;3.00;;;;;;;;;;755682;186;917074;-61
2024/03/17 09:25:02;;;;;;;5.17;2.63;;;;;;;;;;751530;186;919018;-61
2024/03/17 09:27:28;;;;;;;6.05;2.80;;;;;;;;;;751120;186;918020;-61
2024/03/17 09:29:55;;;;;;;5.12;2.78;;;;;;;;;;755403;186;1021534;-61
2024/03/17 09:32:20;;;;;;;8.30;2.73;;;;;;;;;;749917;186;919134;-60
2024/03/17 09:34:48;;;;;;;4.10;2.40;;;;;;;;;;739289;186;917025;-60
2024/03/17 09:37:14;;;;;;;9.03;3.70;;;;;;;;;;741055;186;920473;-59
2024/03/17 09:39:40;;;;;;;3.40;2.50;;;;;;;;;;754213;184;836680;-60
2024/03/17 09:42:07;;;;;;;5.73;3.33;;;;;;;;;;750052;186;918932;-61
2024/03/17 09:44:32;;;;;;;9.23;2.95;;;;;;;;;;745364;186;896213;-61
2024/03/17 09:46:58;;;;;;;12.73;3.13;;;;;;;;;;753110;186;867261;-62
2024/03/17 09:49:23;;;;;;;5.83;3.53;;;;;;;;;;751042;186;919583;-61
2024/03/17 09:51:49;;;;;;;7.07;3.40;;;;;;;;;;752586;186;919707;-60
2024/03/17 09:54:16;;;;;;;5.30;2.73;;;;;;;;;;745459;186;919854;-61
2024/03/17 09:56:42;;;;;;;5.20;2.93;;;;;;;;;;743274;187;917574;-60
2024/03/17 09:59:08;;;;;;;5.33;2.80;;;;;;;;;;743370;184;919362;-61
2024/03/17 10:01:33;;;;;;;6.00;2.80;;;;;;;;;;747815;186;917741;-61
2024/03/17 10:04:03;;;;;;;5.90;3.07;;;;;;;;;;753992;183;919004;-60
2024/03/17 10:06:27;;;;;;;6.77;2.87;;;;;;;;;;751967;185;910473;-61
2024/03/17 10:08:51;;;;;;;9.30;3.13;;;;;;;;;;751467;183;918674;-60
2024/03/17 10:11:17;;;;;;;6.00;2.77;;;;;;;;;;755065;185;919129;-61
2024/03/17 10:13:44;;;;;;;6.33;2.60;;;;;;;;;;751625;186;919756;-61
2024/03/17 10:16:15;;;;;;;9.02;2.70;;;;;;;;;;750069;184;920062;-59
2024/03/17 10:18:41;;;;;;;3.93;2.43;;;;;;;;;;746852;186;921552;-60
2024/03/17 10:21:07;;;;;;;8.77;3.63;;;;;;;;;;756580;186;918742;-61
2024/03/17 10:23:33;;;;;;;5.43;3.07;;;;;;;;;;744966;186;919578;-62
2024/03/17 10:25:59;;;;;;;5.53;3.37;;;;;;;;;;745193;186;919236;-61
2024/03/17 10:28:25;;;;;;;7.70;3.03;;;;;;;;;;755064;186;941638;-60
2024/03/17 10:30:56;;;;;;;7.87;3.43;;;;;;;;;;748448;186;1021390;-62
2024/03/17 10:33:22;;;;;;;6.73;3.83;;;;;;;;;;751574;186;906130;-61
2024/03/17 10:35:48;;;;;;;7.40;3.03;;;;;;;;;;751173;186;817774;-61
2024/03/17 10:38:14;;;;;;;6.97;3.07;;;;;;;;;;755298;186;818087;-61
2024/03/17 10:40:40;;;;;;;5.62;2.47;;;;;;;;;;754281;186;788100;-60
2024/03/17 10:43:05;;;;;;;7.40;3.43;;;;;;;;;;749958;186;819060;-62
2024/03/17 10:45:35;;;;;;;3.73;2.70;;;;;;;;;;752404;186;714016;-61
2024/03/17 10:47:57;;;;;;;4.63;2.57;;;;;;;;;;746896;186;921870;-61
2024/03/17 10:50:23;;;;;;;9.85;3.25;;;;;;;;;;749677;184;919715;-62
2024/03/17 10:52:50;;;;;;;5.68;3.22;;;;;;;;;;754150;184;914288;-62
2024/03/17 10:55:19;;;;;;;7.80;3.33;;;;;;;;;;750802;186;812154;-62
2024/03/17 10:57:48;;;;;;;6.00;3.37;;;;;;;;;;751597;183;921512;-61
2024/03/17 11:00:12;;;;;;;5.70;3.67;;;;;;;;;;750960;185;895224;-62
2024/03/17 11:02:39;;;;;;;7.10;2.93;;;;;;;;;;751860;186;923486;-61
2024/03/17 11:05:05;;;;;;;3.63;2.70;;;;;;;;;;749670;186;917776;-61
2024/03/17 11:07:31;;;;;;;5.13;2.43;;;;;;;;;;752201;186;853175;-62
2024/03/17 11:09:57;;;;;;;4.20;2.53;;;;;;;;;;749292;186;919280;-61
2024/03/17 11:12:29;;;;;;;8.70;2.77;;;;;;;;;;750405;186;741915;-60
2024/03/17 11:15:01;;;;;;;4.90;3.03;;;;;;;;;;751763;186;867001;-61
2024/03/17 11:17:26;;;;;;;4.70;2.40;;;;;;;;;;748831;186;918569;-62
2024/03/17 11:19:58;;;;;;;6.90;3.40;;;;;;;;;;751525;185;915423;-61
2024/03/17 11:22:30;;;;;;;4.20;2.50;;;;;;;;;;740975;187;911831;-61
2024/03/17 11:24:57;;;;;;;5.63;2.80;;;;;;;;;;747189;186;916190;-62
2024/03/17 11:27:27;;;;;;;8.67;4.23;;;;;;;;;;750796;186;921586;-62
2024/03/17 11:29:53;;;;;;;4.57;2.33;;;;;;;;;;748568;186;927084;-62
2024/03/17 11:32:31;;;;;;;4.90;2.53;;;;;;;;;;756511;183;925845;-61
2024/03/17 11:34:56;;;;;;;4.10;2.93;;;;;;;;;;755535;185;916088;-62
2024/03/17 11:37:39;;;;;;;6.80;2.83;;;;;;;;;;747499;183;814362;-62
2024/03/17 11:40:05;;;;;;;7.17;2.73;;;;;;;;;;752073;184;802017;-62
2024/03/17 11:42:32;;;;;;;7.70;2.80;;;;;;;;;;742983;186;915795;-62
2024/03/17 11:45:01;;;;;;;5.90;2.73;;;;;;;;;;757917;185;716010;-61
2024/03/17 11:47:36;;;;;;;4.00;2.30;;;;;;;;;;750647;186;926632;-62
2024/03/17 11:50:02;;;;;;;5.23;2.63;;;;;;;;;;748813;186;911027;-61
2024/03/17 11:52:28;;;;;;;5.30;2.83;;;;;;;;;;750403;186;914925;-61
2024/03/17 11:54:54;;;;;;;8.47;2.53;;;;;;;;;;753558;183;828296;-60
2024/03/17 11:57:22;;;;;;;9.30;2.63;;;;;;;;;;750751;186;811758;-60
2024/03/17 11:59:47;;;;;;;3.58;1.92;;;;;;;;;;749339;186;917522;-60
2024/03/17 12:02:18;;;;;;;5.53;2.00;;;;;;;;;;752440;184;918986;-60
2024/03/17 12:04:44;;;;;;;4.20;2.57;;;;;;;;;;756223;184;622468;-60
2024/03/17 12:07:14;;;;;;;5.00;1.87;;;;;;;;;;747028;186;921758;-61
2024/03/17 12:09:41;;;;;;;5.13;2.40;;;;;;;;;;749113;184;914742;-60
2024/03/17 12:12:09;;;;;;;4.00;2.60;;;;;;;;;;754202;186;920363;-60
2024/03/17 12:14:34;;;;;;;4.53;2.27;;;;;;;;;;751567;186;919736;-60
2024/03/17 12:17:01;;;;;;;4.87;2.40;;;;;;;;;;752242;186;919236;-61
2024/03/17 12:19:27;;;;;;;5.80;2.07;;;;;;;;;;750411;186;919032;-59
2024/03/17 12:21:52;;;;;;;3.77;2.20;;;;;;;;;;757223;186;624098;-60
2024/03/17 12:24:19;;;;;;;9.07;2.40;;;;;;;;;;751501;186;818562;-61
2024/03/17 12:26:44;;;;;;;6.37;2.30;;;;;;;;;;750194;183;919644;-60
2024/03/17 12:29:16;;;;;;;5.17;1.83;;;;;;;;;;757398;185;919449;-59
2024/03/17 12:31:42;;;;;;;4.87;2.33;;;;;;;;;;754618;185;905421;-60
2024/03/17 12:34:08;;;;;;;5.70;2.37;;;;;;;;;;752184;185;816012;-60
2024/03/17 12:36:34;;;;;;;6.60;1.97;;;;;;;;;;745736;185;919892;-61
2024/03/17 12:39:03;;;;;;;9.30;2.03;;;;;;;;;;756060;186;816815;-60
2024/03/17 12:41:25;;;;;;;4.40;1.63;;;;;;;;;;748450;182;919735;-60
2024/03/17 12:43:52;;;;;;;4.20;2.12;;;;;;;;;;750541;186;917077;-60
2024/03/17 12:46:17;;;;;;;6.73;2.90;;;;;;;;;;757344;186;845178;-61
2024/03/17 12:48:43;;;;;;;6.00;1.90;;;;;;;;;;751277;186;923209;-61
2024/03/17 12:51:09;;;;;;;5.43;2.00;;;;;;;;;;747970;185;922908;-60
2024/03/17 12:53:35;;;;;;;6.27;2.10;;;;;;;;;;754655;186;939030;-60
2024/03/17 13:01:04;;;;;;;5.03;2.70;;;;;;;;;;748917;183;919073;-61
2024/03/17 13:03:31;;;;;;;4.83;2.23;;;;;;;;;;754820;186;914362;-60
2024/03/17 13:05:56;;;;;;;5.40;2.23;;;;;;;;;;748168;186;921207;-61
2024/03/17 13:08:22;;;;;;;7.17;3.03;;;;;;;;;;748550;186;821898;-60
2024/03/17 13:10:48;;;;;;;5.37;2.30;;;;;;;;;;750973;185;921354;-61
2024/03/17 13:13:16;;;;;;;3.50;1.93;;;;;;;;;;756783;186;811074;-61
2024/03/17 13:15:42;;;;;;;6.17;2.37;;;;;;;;;;751784;186;815438;-61
2024/03/17 13:18:07;;;;;;;5.83;2.70;;;;;;;;;;750247;183;918806;-62
2024/03/17 13:20:34;;;;;;;6.63;2.20;;;;;;;;;;754386;183;924152;-60
2024/03/17 13:23:00;;;;;;;5.20;2.37;;;;;;;;;;751300;186;819218;-61
2024/03/17 13:25:27;;;;;;;8.20;2.27;;;;;;;;;;749748;186;926946;-62
2024/03/17 13:27:52;;;;;;;7.87;2.90;;;;;;;;;;748956;186;947181;-61
2024/03/17 13:30:18;;;;;;;8.95;2.62;;;;;;;;;;750761;186;817691;-61
2024/03/17 13:32:45;;;;;;;6.83;1.80;;;;;;;;;;748736;184;919707;-61
2024/03/17 13:35:17;;;;;;;3.83;2.30;;;;;;;;;;750289;186;818938;-62
2024/03/17 13:37:42;;;;;;;3.80;1.70;;;;;;;;;;752800;186;935753;-61
2024/03/17 13:40:10;;;;;;;4.30;2.10;;;;;;;;;;748566;183;919540;-62
2024/03/17 13:42:34;;;;;;;4.63;2.60;;;;;;;;;;754644;183;918917;-61
2024/03/17 13:45:00;;;;;;;5.50;2.00;;;;;;;;;;754437;185;919047;-61
2024/03/17 13:47:25;;;;;;;3.70;2.30;;;;;;;;;;752360;186;816380;-60
2024/03/17 13:49:51;;;;;;;3.30;2.30;;;;;;;;;;751721;183;913962;-61
2024/03/17 13:52:18;;;;;;;8.03;2.00;;;;;;;;;;752097;183;895204;-60
2024/03/17 13:54:43;;;;;;;4.43;2.67;;;;;;;;;;755189;183;918634;-61
2024/03/17 13:57:09;;;;;;;5.37;2.40;;;;;;;;;;749915;186;916241;-60
2024/03/17 13:59:36;;;;;;;6.20;2.63;;;;;;;;;;750582;185;907798;-60
2024/03/17 14:02:02;;;;;;;5.10;3.10;;;;;;;;;;757167;186;908389;-60
2024/03/17 14:04:26;;;;;;;4.87;2.13;;;;;;;;;;750724;184;913750;-61
2024/03/17 14:06:53;;;;;;;8.13;2.60;;;;;;;;;;749596;186;914749;-61
2024/03/17 14:09:18;;;;;;;3.77;1.93;;;;;;;;;;755846;186;923093;-61
2024/03/17 14:11:44;;;;;;;5.50;2.27;;;;;;;;;;752940;186;911891;-60
2024/03/17 14:14:11;;;;;;;6.33;2.63;;;;;;;;;;750599;183;818169;-61
2024/03/17 14:16:37;;;;;;;6.43;2.43;;;;;;;;;;749998;183;915699;-60
2024/03/17 14:19:02;;;;;;;6.65;3.28;;;;;;;;;;755055;186;877387;-60
2024/03/17 14:21:28;;;;;;;4.57;2.00;;;;;;;;;;747709;186;919822;-60
2024/03/17 14:23:55;;;;;;;3.73;2.30;;;;;;;;;;750978;186;916559;-60
2024/03/17 14:26:21;;;;;;;4.13;1.80;;;;;;;;;;758249;186;921244;-59
2024/03/17 14:28:47;;;;;;;5.20;2.70;;;;;;;;;;750706;186;911753;-60